sensor_id;sensor_type;location;lat;lon;timestamp;P1;durP1;ratioP1;P2;durP2;ratioP2
21721;SDS011;11023;48.274;7.794;2023-03-24T00:01:21;3.13;;;2.10;;
21721;SDS011;11023;48.274;7.794;2023-03-24T00:03:47;4.25;;;1.88;;
21721;SDS011;11023;48.274;7.794;2023-03-24T00:06:15;2.55;;;2.05;;
21721;SDS011;11023;48.274;7.794;2023-03-24T00:08:43;2.70;;;2.10;;
21721;SDS011;11023;48.274;7.794;2023-03-24T00:11:12;3.50;;;2.20;;
21721;SDS011;11023;48.274;7.794;2023-03-24T00:13:43;3.13;;;2.15;;
21721;SDS011;11023;48.274;7.794;2023-03-24T00:16:12;2.83;;;2.03;;
21721;SDS011;11023;48.274;7.794;2023-03-24T00:18:41;3.85;;;2.22;;
21721;SDS011;11023;48.274;7.794;2023-03-24T00:21:07;5.80;;;2.47;;
21721;SDS011;11023;48.274;7.794;2023-03-24T00:23:36;4.25;;;2.33;;
21721;SDS011;11023;48.274;7.794;2023-03-24T00:26:06;3.70;;;2.28;;
21721;SDS011;11023;48.274;7.794;2023-03-24T00:28:36;2.40;;;1.80;;
21721;SDS011;11023;48.274;7.794;2023-03-24T00:31:04;3.58;;;1.80;;
21721;SDS011;11023;48.274;7.794;2023-03-24T00:33:31;5.22;;;2.00;;
21721;SDS011;11023;48.274;7.794;2023-03-24T00:35:59;3.67;;;1.90;;
21721;SDS011;11023;48.274;7.794;2023-03-24T00:38:26;3.38;;;1.67;;
21721;SDS011;11023;48.274;7.794;2023-03-24T00:40:53;2.33;;;1.98;;
21721;SDS011;11023;48.274;7.794;2023-03-24T00:43:19;2.97;;;1.85;;
21721;SDS011;11023;48.274;7.794;2023-03-24T00:45:45;3.58;;;1.73;;
21721;SDS011;11023;48.274;7.794;2023-03-24T00:48:12;1.95;;;1.63;;
21721;SDS011;11023;48.274;7.794;2023-03-24T00:50:49;4.35;;;1.83;;
21721;SDS011;11023;48.274;7.794;2023-03-24T00:53:17;3.05;;;1.98;;
21721;SDS011;11023;48.274;7.794;2023-03-24T00:55:44;2.95;;;1.80;;
21721;SDS011;11023;48.274;7.794;2023-03-24T00:58:31;2.85;;;1.52;;
21721;SDS011;11023;48.274;7.794;2023-03-24T01:00:58;1.55;;;1.45;;
21721;SDS011;11023;48.274;7.794;2023-03-24T01:03:24;2.03;;;1.48;;
21721;SDS011;11023;48.274;7.794;2023-03-24T01:06:01;1.50;;;1.40;;
21721;SDS011;11023;48.274;7.794;2023-03-24T01:08:29;2.75;;;1.55;;
21721;SDS011;11023;48.274;7.794;2023-03-24T01:10:55;2.28;;;1.40;;
21721;SDS011;11023;48.274;7.794;2023-03-24T01:13:26;2.50;;;1.58;;
21721;SDS011;11023;48.274;7.794;2023-03-24T01:15:55;1.67;;;1.40;;
21721;SDS011;11023;48.274;7.794;2023-03-24T01:18:21;2.50;;;1.40;;
21721;SDS011;11023;48.274;7.794;2023-03-24T01:20:49;1.95;;;1.10;;
21721;SDS011;11023;48.274;7.794;2023-03-24T01:23:20;1.60;;;1.35;;
21721;SDS011;11023;48.274;7.794;2023-03-24T01:25:48;2.17;;;1.40;;
21721;SDS011;11023;48.274;7.794;2023-03-24T01:28:16;4.32;;;1.30;;
21721;SDS011;11023;48.274;7.794;2023-03-24T01:30:45;2.13;;;1.33;;
21721;SDS011;11023;48.274;7.794;2023-03-24T01:33:11;2.15;;;1.35;;
21721;SDS011;11023;48.274;7.794;2023-03-24T01:35:37;2.13;;;1.40;;
21721;SDS011;11023;48.274;7.794;2023-03-24T01:38:06;2.17;;;1.45;;
21721;SDS011;11023;48.274;7.794;2023-03-24T01:40:34;1.70;;;1.30;;
21721;SDS011;11023;48.274;7.794;2023-03-24T01:43:02;1.83;;;1.23;;
21721;SDS011;11023;48.274;7.794;2023-03-24T01:45:38;1.88;;;1.35;;
21721;SDS011;11023;48.274;7.794;2023-03-24T01:51:13;1.63;;;1.35;;
21721;SDS011;11023;48.274;7.794;2023-03-24T01:53:44;1.80;;;1.10;;
21721;SDS011;11023;48.274;7.794;2023-03-24T01:56:15;2.72;;;2.20;;
21721;SDS011;11023;48.274;7.794;2023-03-24T01:58:45;3.15;;;2.42;;
21721;SDS011;11023;48.274;7.794;2023-03-24T02:01:14;2.65;;;2.10;;
21721;SDS011;11023;48.274;7.794;2023-03-24T02:03:41;3.00;;;2.00;;
21721;SDS011;11023;48.274;7.794;2023-03-24T02:06:08;1.95;;;1.60;;
21721;SDS011;11023;48.274;7.794;2023-03-24T02:08:40;3.55;;;1.45;;
21721;SDS011;11023;48.274;7.794;2023-03-24T02:11:18;2.45;;;1.55;;
21721;SDS011;11023;48.274;7.794;2023-03-24T02:13:45;1.73;;;1.30;;
21721;SDS011;11023;48.274;7.794;2023-03-24T02:19:09;2.35;;;1.40;;
21721;SDS011;11023;48.274;7.794;2023-03-24T02:27:00;2.63;;;1.40;;
21721;SDS011;11023;48.274;7.794;2023-03-24T02:32:33;1.95;;;1.50;;
21721;SDS011;11023;48.274;7.794;2023-03-24T02:38:09;1.90;;;1.38;;
21721;SDS011;11023;48.274;7.794;2023-03-24T02:43:48;3.53;;;1.33;;
21721;SDS011;11023;48.274;7.794;2023-03-24T02:46:35;1.55;;;1.33;;
21721;SDS011;11023;48.274;7.794;2023-03-24T02:52:39;3.85;;;1.30;;
21721;SDS011;11023;48.274;7.794;2023-03-24T02:59:54;1.75;;;1.40;;
21721;SDS011;11023;48.274;7.794;2023-03-24T03:02:26;2.08;;;1.30;;
21721;SDS011;11023;48.274;7.794;2023-03-24T03:04:59;2.53;;;1.30;;
21721;SDS011;11023;48.274;7.794;2023-03-24T03:07:38;1.83;;;1.48;;
21721;SDS011;11023;48.274;7.794;2023-03-24T03:10:23;2.17;;;1.50;;
21721;SDS011;11023;48.274;7.794;2023-03-24T03:12:54;2.13;;;1.40;;
21721;SDS011;11023;48.274;7.794;2023-03-24T03:15:25;1.92;;;1.52;;
21721;SDS011;11023;48.274;7.794;2023-03-24T03:18:10;2.17;;;1.33;;
21721;SDS011;11023;48.274;7.794;2023-03-24T03:20:40;1.95;;;1.27;;
21721;SDS011;11023;48.274;7.794;2023-03-24T03:23:14;3.40;;;1.70;;
21721;SDS011;11023;48.274;7.794;2023-03-24T03:25:44;1.70;;;1.38;;
21721;SDS011;11023;48.274;7.794;2023-03-24T03:28:16;1.90;;;1.50;;
21721;SDS011;11023;48.274;7.794;2023-03-24T03:30:50;1.83;;;1.30;;
21721;SDS011;11023;48.274;7.794;2023-03-24T03:33:20;1.73;;;1.20;;
21721;SDS011;11023;48.274;7.794;2023-03-24T03:36:05;2.33;;;1.15;;
21721;SDS011;11023;48.274;7.794;2023-03-24T03:39:06;2.28;;;1.25;;
21721;SDS011;11023;48.274;7.794;2023-03-24T03:41:37;1.85;;;1.48;;
21721;SDS011;11023;48.274;7.794;2023-03-24T03:44:04;2.72;;;1.45;;
21721;SDS011;11023;48.274;7.794;2023-03-24T03:46:30;2.05;;;1.48;;
21721;SDS011;11023;48.274;7.794;2023-03-24T03:48:56;3.40;;;1.55;;
21721;SDS011;11023;48.274;7.794;2023-03-24T03:51:22;2.67;;;1.30;;
21721;SDS011;11023;48.274;7.794;2023-03-24T03:53:55;1.55;;;1.13;;
21721;SDS011;11023;48.274;7.794;2023-03-24T03:56:31;2.88;;;1.30;;
21721;SDS011;11023;48.274;7.794;2023-03-24T03:58:59;1.88;;;1.33;;
21721;SDS011;11023;48.274;7.794;2023-03-24T04:01:26;1.65;;;1.40;;
21721;SDS011;11023;48.274;7.794;2023-03-24T04:17:59;3.15;;;1.70;;
21721;SDS011;11023;48.274;7.794;2023-03-24T04:23:36;3.72;;;2.00;;
21721;SDS011;11023;48.274;7.794;2023-03-24T04:26:29;3.08;;;2.47;;
21721;SDS011;11023;48.274;7.794;2023-03-24T04:29:10;2.72;;;2.15;;
21721;SDS011;11023;48.274;7.794;2023-03-24T04:34:35;3.13;;;2.25;;
21721;SDS011;11023;48.274;7.794;2023-03-24T04:37:07;2.75;;;2.05;;
21721;SDS011;11023;48.274;7.794;2023-03-24T04:39:37;3.67;;;2.42;;
21721;SDS011;11023;48.274;7.794;2023-03-24T04:42:11;5.47;;;2.65;;
21721;SDS011;11023;48.274;7.794;2023-03-24T04:44:50;4.65;;;2.72;;
21721;SDS011;11023;48.274;7.794;2023-03-24T04:47:20;4.43;;;2.22;;
21721;SDS011;11023;48.274;7.794;2023-03-24T04:49:48;3.17;;;2.60;;
21721;SDS011;11023;48.274;7.794;2023-03-24T04:52:14;2.90;;;2.40;;
21721;SDS011;11023;48.274;7.794;2023-03-24T04:54:40;3.40;;;2.47;;
21721;SDS011;11023;48.274;7.794;2023-03-24T04:57:05;2.55;;;2.35;;
21721;SDS011;11023;48.274;7.794;2023-03-24T04:59:31;4.30;;;2.40;;
21721;SDS011;11023;48.274;7.794;2023-03-24T05:02:01;4.65;;;2.47;;
21721;SDS011;11023;48.274;7.794;2023-03-24T05:04:28;4.30;;;2.20;;
21721;SDS011;11023;48.274;7.794;2023-03-24T05:06:54;3.92;;;2.70;;
21721;SDS011;11023;48.274;7.794;2023-03-24T05:09:21;3.05;;;2.63;;
21721;SDS011;11023;48.274;7.794;2023-03-24T05:11:49;4.35;;;2.45;;
21721;SDS011;11023;48.274;7.794;2023-03-24T05:14:15;4.30;;;2.72;;
21721;SDS011;11023;48.274;7.794;2023-03-24T05:16:41;5.63;;;2.90;;
21721;SDS011;11023;48.274;7.794;2023-03-24T05:19:07;3.75;;;2.90;;
21721;SDS011;11023;48.274;7.794;2023-03-24T05:21:34;5.43;;;3.15;;
21721;SDS011;11023;48.274;7.794;2023-03-24T05:24:00;5.60;;;3.53;;
21721;SDS011;11023;48.274;7.794;2023-03-24T05:26:26;4.22;;;3.13;;
21721;SDS011;11023;48.274;7.794;2023-03-24T05:28:52;6.32;;;3.03;;
21721;SDS011;11023;48.274;7.794;2023-03-24T05:31:18;5.07;;;3.20;;
21721;SDS011;11023;48.274;7.794;2023-03-24T05:33:44;5.28;;;3.20;;
21721;SDS011;11023;48.274;7.794;2023-03-24T05:36:10;3.80;;;3.00;;
21721;SDS011;11023;48.274;7.794;2023-03-24T05:38:36;5.68;;;3.28;;
21721;SDS011;11023;48.274;7.794;2023-03-24T05:41:02;4.25;;;3.38;;
21721;SDS011;11023;48.274;7.794;2023-03-24T05:43:29;5.18;;;3.40;;
21721;SDS011;11023;48.274;7.794;2023-03-24T05:45:56;4.50;;;3.50;;
21721;SDS011;11023;48.274;7.794;2023-03-24T05:48:24;3.63;;;2.97;;
21721;SDS011;11023;48.274;7.794;2023-03-24T05:50:53;6.35;;;3.40;;
21721;SDS011;11023;48.274;7.794;2023-03-24T05:53:19;5.43;;;3.05;;
21721;SDS011;11023;48.274;7.794;2023-03-24T05:55:44;4.28;;;3.22;;
21721;SDS011;11023;48.274;7.794;2023-03-24T05:58:10;5.15;;;3.58;;
21721;SDS011;11023;48.274;7.794;2023-03-24T06:00:36;5.35;;;3.63;;
21721;SDS011;11023;48.274;7.794;2023-03-24T06:03:03;4.43;;;3.20;;
21721;SDS011;11023;48.274;7.794;2023-03-24T06:05:29;5.22;;;3.53;;
21721;SDS011;11023;48.274;7.794;2023-03-24T06:07:55;3.58;;;3.28;;
21721;SDS011;11023;48.274;7.794;2023-03-24T06:10:23;5.85;;;3.60;;
21721;SDS011;11023;48.274;7.794;2023-03-24T06:12:50;6.07;;;3.60;;
21721;SDS011;11023;48.274;7.794;2023-03-24T06:15:16;6.07;;;3.65;;
21721;SDS011;11023;48.274;7.794;2023-03-24T06:17:42;5.13;;;4.05;;
21721;SDS011;11023;48.274;7.794;2023-03-24T06:20:10;5.80;;;3.83;;
21721;SDS011;11023;48.274;7.794;2023-03-24T06:22:40;6.65;;;4.00;;
21721;SDS011;11023;48.274;7.794;2023-03-24T06:25:08;6.25;;;4.00;;
21721;SDS011;11023;48.274;7.794;2023-03-24T06:27:35;7.63;;;4.43;;
21721;SDS011;11023;48.274;7.794;2023-03-24T06:30:01;8.30;;;4.38;;
21721;SDS011;11023;48.274;7.794;2023-03-24T06:32:27;5.20;;;3.90;;
21721;SDS011;11023;48.274;7.794;2023-03-24T06:34:53;7.47;;;4.43;;
21721;SDS011;11023;48.274;7.794;2023-03-24T06:37:22;5.85;;;4.07;;
21721;SDS011;11023;48.274;7.794;2023-03-24T06:39:48;6.38;;;3.85;;
21721;SDS011;11023;48.274;7.794;2023-03-24T06:42:14;7.68;;;4.10;;
21721;SDS011;11023;48.274;7.794;2023-03-24T06:44:40;5.38;;;4.15;;
21721;SDS011;11023;48.274;7.794;2023-03-24T06:47:05;6.20;;;4.43;;
21721;SDS011;11023;48.274;7.794;2023-03-24T06:49:31;5.78;;;4.20;;
21721;SDS011;11023;48.274;7.794;2023-03-24T06:51:59;5.90;;;3.78;;
21721;SDS011;11023;48.274;7.794;2023-03-24T06:54:25;6.72;;;4.15;;
21721;SDS011;11023;48.274;7.794;2023-03-24T06:56:51;7.18;;;4.05;;
21721;SDS011;11023;48.274;7.794;2023-03-24T06:59:17;6.35;;;4.13;;
21721;SDS011;11023;48.274;7.794;2023-03-24T07:01:48;6.32;;;3.92;;
21721;SDS011;11023;48.274;7.794;2023-03-24T07:04:14;4.40;;;3.88;;
21721;SDS011;11023;48.274;7.794;2023-03-24T07:06:40;5.22;;;3.95;;
21721;SDS011;11023;48.274;7.794;2023-03-24T07:09:06;6.20;;;4.07;;
21721;SDS011;11023;48.274;7.794;2023-03-24T07:11:32;5.25;;;4.13;;
21721;SDS011;11023;48.274;7.794;2023-03-24T07:13:58;6.82;;;4.10;;
21721;SDS011;11023;48.274;7.794;2023-03-24T07:16:23;8.50;;;4.22;;
21721;SDS011;11023;48.274;7.794;2023-03-24T07:18:49;5.07;;;4.10;;
21721;SDS011;11023;48.274;7.794;2023-03-24T07:21:15;5.93;;;3.75;;
21721;SDS011;11023;48.274;7.794;2023-03-24T07:23:42;6.72;;;3.83;;
21721;SDS011;11023;48.274;7.794;2023-03-24T07:26:08;6.03;;;3.47;;
21721;SDS011;11023;48.274;7.794;2023-03-24T07:28:33;4.95;;;3.60;;
21721;SDS011;11023;48.274;7.794;2023-03-24T07:31:03;4.63;;;3.97;;
21721;SDS011;11023;48.274;7.794;2023-03-24T07:33:30;6.47;;;4.38;;
21721;SDS011;11023;48.274;7.794;2023-03-24T07:35:56;6.43;;;4.15;;
21721;SDS011;11023;48.274;7.794;2023-03-24T07:38:24;5.95;;;4.55;;
21721;SDS011;11023;48.274;7.794;2023-03-24T07:40:51;6.35;;;4.10;;
21721;SDS011;11023;48.274;7.794;2023-03-24T07:43:17;6.25;;;4.43;;
21721;SDS011;11023;48.274;7.794;2023-03-24T07:45:43;6.32;;;4.22;;
21721;SDS011;11023;48.274;7.794;2023-03-24T07:48:09;5.50;;;3.95;;
21721;SDS011;11023;48.274;7.794;2023-03-24T07:50:35;5.57;;;3.80;;
21721;SDS011;11023;48.274;7.794;2023-03-24T07:53:01;6.45;;;4.20;;
21721;SDS011;11023;48.274;7.794;2023-03-24T07:55:27;7.82;;;4.03;;
21721;SDS011;11023;48.274;7.794;2023-03-24T07:57:52;6.03;;;3.90;;
21721;SDS011;11023;48.274;7.794;2023-03-24T08:00:18;4.80;;;3.55;;
21721;SDS011;11023;48.274;7.794;2023-03-24T08:02:46;3.83;;;3.35;;
21721;SDS011;11023;48.274;7.794;2023-03-24T08:05:13;4.65;;;3.90;;
21721;SDS011;11023;48.274;7.794;2023-03-24T08:07:40;5.20;;;3.75;;
21721;SDS011;11023;48.274;7.794;2023-03-24T08:10:10;5.60;;;3.70;;
21721;SDS011;11023;48.274;7.794;2023-03-24T08:12:37;4.50;;;3.58;;
21721;SDS011;11023;48.274;7.794;2023-03-24T08:15:04;4.80;;;3.20;;
21721;SDS011;11023;48.274;7.794;2023-03-24T08:17:32;5.55;;;3.38;;
21721;SDS011;11023;48.274;7.794;2023-03-24T08:19:58;5.05;;;3.20;;
21721;SDS011;11023;48.274;7.794;2023-03-24T08:22:24;5.13;;;3.38;;
21721;SDS011;11023;48.274;7.794;2023-03-24T08:24:49;5.35;;;3.40;;
21721;SDS011;11023;48.274;7.794;2023-03-24T08:27:15;4.97;;;3.28;;
21721;SDS011;11023;48.274;7.794;2023-03-24T08:29:41;5.10;;;3.63;;
21721;SDS011;11023;48.274;7.794;2023-03-24T08:32:07;5.80;;;3.50;;
21721;SDS011;11023;48.274;7.794;2023-03-24T08:34:33;6.10;;;3.63;;
21721;SDS011;11023;48.274;7.794;2023-03-24T08:36:59;6.78;;;3.40;;
21721;SDS011;11023;48.274;7.794;2023-03-24T08:39:25;5.60;;;3.17;;
21721;SDS011;11023;48.274;7.794;2023-03-24T08:41:50;5.93;;;3.58;;
21721;SDS011;11023;48.274;7.794;2023-03-24T08:44:19;6.35;;;3.20;;
21721;SDS011;11023;48.274;7.794;2023-03-24T08:46:45;5.18;;;3.25;;
21721;SDS011;11023;48.274;7.794;2023-03-24T08:49:10;4.75;;;3.17;;
21721;SDS011;11023;48.274;7.794;2023-03-24T08:51:36;5.50;;;3.30;;
21721;SDS011;11023;48.274;7.794;2023-03-24T08:54:02;4.32;;;3.10;;
21721;SDS011;11023;48.274;7.794;2023-03-24T08:56:28;4.35;;;2.90;;
21721;SDS011;11023;48.274;7.794;2023-03-24T08:58:54;4.93;;;3.42;;
21721;SDS011;11023;48.274;7.794;2023-03-24T09:01:22;5.30;;;3.28;;
21721;SDS011;11023;48.274;7.794;2023-03-24T09:03:48;4.00;;;2.67;;
21721;SDS011;11023;48.274;7.794;2023-03-24T09:06:14;4.40;;;3.10;;
21721;SDS011;11023;48.274;7.794;2023-03-24T09:08:40;2.95;;;2.50;;
21721;SDS011;11023;48.274;7.794;2023-03-24T09:11:06;4.05;;;2.80;;
21721;SDS011;11023;48.274;7.794;2023-03-24T09:13:42;4.25;;;2.60;;
21721;SDS011;11023;48.274;7.794;2023-03-24T09:16:08;4.25;;;2.58;;
21721;SDS011;11023;48.274;7.794;2023-03-24T09:18:34;7.13;;;2.90;;
21721;SDS011;11023;48.274;7.794;2023-03-24T09:20:59;3.55;;;2.55;;
21721;SDS011;11023;48.274;7.794;2023-03-24T09:23:25;3.25;;;2.55;;
21721;SDS011;11023;48.274;7.794;2023-03-24T09:25:54;4.95;;;2.72;;
21721;SDS011;11023;48.274;7.794;2023-03-24T09:28:20;3.40;;;2.42;;
21721;SDS011;11023;48.274;7.794;2023-03-24T09:30:46;4.38;;;2.30;;
21721;SDS011;11023;48.274;7.794;2023-03-24T09:33:12;4.55;;;2.53;;
21721;SDS011;11023;48.274;7.794;2023-03-24T09:35:38;3.90;;;2.60;;
21721;SDS011;11023;48.274;7.794;2023-03-24T09:38:03;4.07;;;2.28;;
21721;SDS011;11023;48.274;7.794;2023-03-24T09:40:30;4.43;;;2.35;;
21721;SDS011;11023;48.274;7.794;2023-03-24T09:43:19;3.70;;;2.25;;
21721;SDS011;11023;48.274;7.794;2023-03-24T09:45:56;5.93;;;2.67;;
21721;SDS011;11023;48.274;7.794;2023-03-24T09:50:57;3.25;;;2.22;;
21721;SDS011;11023;48.274;7.794;2023-03-24T09:56:16;4.10;;;2.00;;
21721;SDS011;11023;48.274;7.794;2023-03-24T09:58:46;3.65;;;2.15;;
21721;SDS011;11023;48.274;7.794;2023-03-24T10:01:23;3.95;;;2.03;;
21721;SDS011;11023;48.274;7.794;2023-03-24T10:03:49;2.42;;;1.80;;
21721;SDS011;11023;48.274;7.794;2023-03-24T10:06:37;3.70;;;2.05;;
21721;SDS011;11023;48.274;7.794;2023-03-24T10:17:04;1.80;;;1.58;;
21721;SDS011;11023;48.274;7.794;2023-03-24T10:19:46;2.60;;;1.60;;
21721;SDS011;11023;48.274;7.794;2023-03-24T10:22:21;3.45;;;1.60;;
21721;SDS011;11023;48.274;7.794;2023-03-24T10:25:17;2.65;;;1.50;;
21721;SDS011;11023;48.274;7.794;2023-03-24T10:27:45;4.07;;;1.75;;
21721;SDS011;11023;48.274;7.794;2023-03-24T10:30:25;2.58;;;1.40;;
21721;SDS011;11023;48.274;7.794;2023-03-24T10:32:57;1.42;;;1.10;;
21721;SDS011;11023;48.274;7.794;2023-03-24T10:35:24;2.72;;;1.20;;
21721;SDS011;11023;48.274;7.794;2023-03-24T10:37:54;2.42;;;1.30;;
21721;SDS011;11023;48.274;7.794;2023-03-24T10:40:28;3.70;;;1.38;;
21721;SDS011;11023;48.274;7.794;2023-03-24T10:42:55;1.25;;;1.10;;
21721;SDS011;11023;48.274;7.794;2023-03-24T10:45:33;2.78;;;1.15;;
21721;SDS011;11023;48.274;7.794;2023-03-24T10:48:01;2.97;;;1.25;;
21721;SDS011;11023;48.274;7.794;2023-03-24T10:50:32;3.13;;;1.00;;
21721;SDS011;11023;48.274;7.794;2023-03-24T10:52:59;2.15;;;0.80;;
21721;SDS011;11023;48.274;7.794;2023-03-24T10:55:36;2.05;;;1.02;;
21721;SDS011;11023;48.274;7.794;2023-03-24T10:58:04;0.85;;;0.70;;
21721;SDS011;11023;48.274;7.794;2023-03-24T11:00:48;1.85;;;0.63;;
21721;SDS011;11023;48.274;7.794;2023-03-24T11:03:21;1.73;;;0.80;;
21721;SDS011;11023;48.274;7.794;2023-03-24T11:05:56;1.67;;;0.63;;
21721;SDS011;11023;48.274;7.794;2023-03-24T11:08:25;1.38;;;0.70;;
21721;SDS011;11023;48.274;7.794;2023-03-24T11:10:56;0.80;;;0.60;;
21721;SDS011;11023;48.274;7.794;2023-03-24T11:16:08;0.68;;;0.68;;
21721;SDS011;11023;48.274;7.794;2023-03-24T11:18:53;1.42;;;0.90;;
21721;SDS011;11023;48.274;7.794;2023-03-24T11:21:30;2.33;;;0.80;;
21721;SDS011;11023;48.274;7.794;2023-03-24T11:24:01;3.42;;;0.80;;
21721;SDS011;11023;48.274;7.794;2023-03-24T11:26:36;2.15;;;0.90;;
21721;SDS011;11023;48.274;7.794;2023-03-24T11:29:15;1.50;;;0.80;;
21721;SDS011;11023;48.274;7.794;2023-03-24T11:31:49;0.98;;;0.70;;
21721;SDS011;11023;48.274;7.794;2023-03-24T11:34:21;1.42;;;0.95;;
21721;SDS011;11023;48.274;7.794;2023-03-24T11:37:16;1.00;;;0.90;;
21721;SDS011;11023;48.274;7.794;2023-03-24T11:40:03;2.40;;;0.90;;
21721;SDS011;11023;48.274;7.794;2023-03-24T11:42:45;1.95;;;0.70;;
21721;SDS011;11023;48.274;7.794;2023-03-24T11:45:23;1.23;;;0.70;;
21721;SDS011;11023;48.274;7.794;2023-03-24T11:47:58;1.23;;;0.70;;
21721;SDS011;11023;48.274;7.794;2023-03-24T11:50:27;1.70;;;0.70;;
21721;SDS011;11023;48.274;7.794;2023-03-24T11:53:01;0.88;;;0.50;;
21721;SDS011;11023;48.274;7.794;2023-03-24T11:55:42;1.48;;;0.57;;
21721;SDS011;11023;48.274;7.794;2023-03-24T12:01:03;1.00;;;0.60;;
21721;SDS011;11023;48.274;7.794;2023-03-24T12:04:15;0.70;;;0.60;;
21721;SDS011;11023;48.274;7.794;2023-03-24T12:09:54;1.40;;;0.85;;
21721;SDS011;11023;48.274;7.794;2023-03-24T12:18:14;1.55;;;0.52;;
21721;SDS011;11023;48.274;7.794;2023-03-24T12:26:24;2.42;;;0.85;;
21721;SDS011;11023;48.274;7.794;2023-03-24T12:37:02;1.63;;;1.00;;
21721;SDS011;11023;48.274;7.794;2023-03-24T12:39:34;1.45;;;0.73;;
21721;SDS011;11023;48.274;7.794;2023-03-24T12:42:16;1.67;;;1.00;;
21721;SDS011;11023;48.274;7.794;2023-03-24T12:47:51;1.88;;;0.93;;
21721;SDS011;11023;48.274;7.794;2023-03-24T12:55:47;2.35;;;0.98;;
21721;SDS011;11023;48.274;7.794;2023-03-24T12:58:25;1.20;;;0.63;;
21721;SDS011;11023;48.274;7.794;2023-03-24T13:01:06;3.35;;;1.05;;
21721;SDS011;11023;48.274;7.794;2023-03-24T13:06:33;1.25;;;0.90;;
21721;SDS011;11023;48.274;7.794;2023-03-24T13:12:27;3.35;;;0.88;;
21721;SDS011;11023;48.274;7.794;2023-03-24T13:15:15;0.80;;;0.80;;
21721;SDS011;11023;48.274;7.794;2023-03-24T13:17:47;1.73;;;0.90;;
21721;SDS011;11023;48.274;7.794;2023-03-24T13:23:26;1.23;;;0.90;;
21721;SDS011;11023;48.274;7.794;2023-03-24T13:26:38;1.15;;;0.98;;
21721;SDS011;11023;48.274;7.794;2023-03-24T13:29:34;2.78;;;1.10;;
21721;SDS011;11023;48.274;7.794;2023-03-24T13:32:30;1.13;;;0.80;;
21721;SDS011;11023;48.274;7.794;2023-03-24T13:35:05;1.58;;;0.90;;
21721;SDS011;11023;48.274;7.794;2023-03-24T13:40:37;3.47;;;1.15;;
21721;SDS011;11023;48.274;7.794;2023-03-24T13:43:11;1.83;;;0.90;;
21721;SDS011;11023;48.274;7.794;2023-03-24T13:45:46;1.60;;;0.70;;
21721;SDS011;11023;48.274;7.794;2023-03-24T13:48:31;1.30;;;0.68;;
21721;SDS011;11023;48.274;7.794;2023-03-24T13:56:10;2.00;;;1.50;;
21721;SDS011;11023;48.274;7.794;2023-03-24T14:10:26;1.90;;;0.80;;
21721;SDS011;11023;48.274;7.794;2023-03-24T14:23:38;1.63;;;0.80;;
21721;SDS011;11023;48.274;7.794;2023-03-24T14:26:11;1.15;;;0.80;;
21721;SDS011;11023;48.274;7.794;2023-03-24T14:28:38;1.00;;;0.82;;
21721;SDS011;11023;48.274;7.794;2023-03-24T14:33:41;1.08;;;0.85;;
21721;SDS011;11023;48.274;7.794;2023-03-24T14:36:39;2.85;;;1.08;;
21721;SDS011;11023;48.274;7.794;2023-03-24T14:44:53;1.00;;;0.90;;
21721;SDS011;11023;48.274;7.794;2023-03-24T14:47:31;1.38;;;0.90;;
21721;SDS011;11023;48.274;7.794;2023-03-24T14:50:18;0.90;;;0.80;;
21721;SDS011;11023;48.274;7.794;2023-03-24T14:52:47;1.63;;;0.80;;
21721;SDS011;11023;48.274;7.794;2023-03-24T14:55:16;1.48;;;0.80;;
21721;SDS011;11023;48.274;7.794;2023-03-24T14:57:47;1.50;;;0.80;;
21721;SDS011;11023;48.274;7.794;2023-03-24T15:00:27;1.35;;;0.85;;
21721;SDS011;11023;48.274;7.794;2023-03-24T15:03:17;1.80;;;0.80;;
21721;SDS011;11023;48.274;7.794;2023-03-24T15:06:11;2.58;;;0.80;;
21721;SDS011;11023;48.274;7.794;2023-03-24T15:08:56;1.13;;;0.70;;
21721;SDS011;11023;48.274;7.794;2023-03-24T15:11:27;1.33;;;0.85;;
21721;SDS011;11023;48.274;7.794;2023-03-24T15:13:56;1.25;;;0.88;;
21721;SDS011;11023;48.274;7.794;2023-03-24T15:16:24;2.10;;;0.90;;
21721;SDS011;11023;48.274;7.794;2023-03-24T15:18:55;1.17;;;0.80;;
21721;SDS011;11023;48.274;7.794;2023-03-24T15:21:38;1.27;;;0.88;;
21721;SDS011;11023;48.274;7.794;2023-03-24T15:26:54;1.73;;;0.90;;
21721;SDS011;11023;48.274;7.794;2023-03-24T15:29:41;1.27;;;1.10;;
21721;SDS011;11023;48.274;7.794;2023-03-24T15:32:15;2.00;;;1.10;;
21721;SDS011;11023;48.274;7.794;2023-03-24T15:34:52;1.90;;;1.20;;
21721;SDS011;11023;48.274;7.794;2023-03-24T15:37:33;2.58;;;0.90;;
21721;SDS011;11023;48.274;7.794;2023-03-24T15:40:01;1.60;;;0.98;;
21721;SDS011;11023;48.274;7.794;2023-03-24T15:42:30;1.40;;;1.17;;
21721;SDS011;11023;48.274;7.794;2023-03-24T15:45:04;1.17;;;1.08;;
21721;SDS011;11023;48.274;7.794;2023-03-24T15:47:36;1.20;;;1.10;;
21721;SDS011;11023;48.274;7.794;2023-03-24T15:50:26;1.83;;;1.08;;
21721;SDS011;11023;48.274;7.794;2023-03-24T15:55:43;2.85;;;1.60;;
21721;SDS011;11023;48.274;7.794;2023-03-24T15:58:23;2.08;;;1.20;;
21721;SDS011;11023;48.274;7.794;2023-03-24T16:00:56;2.13;;;1.10;;
21721;SDS011;11023;48.274;7.794;2023-03-24T16:03:23;2.22;;;1.08;;
21721;SDS011;11023;48.274;7.794;2023-03-24T16:05:51;2.03;;;1.10;;
21721;SDS011;11023;48.274;7.794;2023-03-24T16:08:31;2.90;;;1.30;;
21721;SDS011;11023;48.274;7.794;2023-03-24T16:11:05;2.58;;;1.00;;
21721;SDS011;11023;48.274;7.794;2023-03-24T16:13:35;2.53;;;1.00;;
21721;SDS011;11023;48.274;7.794;2023-03-24T16:18:40;1.20;;;1.10;;
21721;SDS011;11023;48.274;7.794;2023-03-24T16:21:12;1.17;;;1.00;;
21721;SDS011;11023;48.274;7.794;2023-03-24T16:23:38;1.85;;;1.20;;
21721;SDS011;11023;48.274;7.794;2023-03-24T16:26:08;1.23;;;0.93;;
21721;SDS011;11023;48.274;7.794;2023-03-24T16:28:40;3.40;;;1.45;;
21721;SDS011;11023;48.274;7.794;2023-03-24T16:31:06;1.48;;;1.17;;
21721;SDS011;11023;48.274;7.794;2023-03-24T16:36:06;1.70;;;1.02;;
21721;SDS011;11023;48.274;7.794;2023-03-24T16:38:35;1.25;;;0.90;;
21721;SDS011;11023;48.274;7.794;2023-03-24T16:41:02;1.25;;;1.13;;
21721;SDS011;11023;48.274;7.794;2023-03-24T16:43:28;5.30;;;1.13;;
21721;SDS011;11023;48.274;7.794;2023-03-24T16:45:57;1.75;;;1.10;;
21721;SDS011;11023;48.274;7.794;2023-03-24T16:48:23;1.63;;;0.90;;
21721;SDS011;11023;48.274;7.794;2023-03-24T16:50:50;2.75;;;1.10;;
21721;SDS011;11023;48.274;7.794;2023-03-24T16:53:19;1.70;;;0.98;;
21721;SDS011;11023;48.274;7.794;2023-03-24T16:55:45;2.13;;;0.90;;
21721;SDS011;11023;48.274;7.794;2023-03-24T16:58:12;1.50;;;1.38;;
21721;SDS011;11023;48.274;7.794;2023-03-24T17:00:40;2.42;;;1.00;;
21721;SDS011;11023;48.274;7.794;2023-03-24T17:03:10;2.65;;;0.90;;
21721;SDS011;11023;48.274;7.794;2023-03-24T17:05:47;1.58;;;1.00;;
21721;SDS011;11023;48.274;7.794;2023-03-24T17:08:14;1.83;;;1.20;;
21721;SDS011;11023;48.274;7.794;2023-03-24T17:10:42;1.48;;;1.08;;
21721;SDS011;11023;48.274;7.794;2023-03-24T17:13:31;2.65;;;1.20;;
21721;SDS011;11023;48.274;7.794;2023-03-24T17:15:55;3.92;;;1.30;;
21721;SDS011;11023;48.274;7.794;2023-03-24T17:18:21;1.30;;;1.20;;
21721;SDS011;11023;48.274;7.794;2023-03-24T17:20:47;2.38;;;1.20;;
21721;SDS011;11023;48.274;7.794;2023-03-24T17:23:13;1.40;;;1.02;;
21721;SDS011;11023;48.274;7.794;2023-03-24T17:25:42;2.28;;;1.15;;
21721;SDS011;11023;48.274;7.794;2023-03-24T17:28:12;2.28;;;1.17;;
21721;SDS011;11023;48.274;7.794;2023-03-24T17:30:41;2.10;;;1.20;;
21721;SDS011;11023;48.274;7.794;2023-03-24T17:33:10;3.20;;;1.30;;
21721;SDS011;11023;48.274;7.794;2023-03-24T17:35:37;2.92;;;1.40;;
21721;SDS011;11023;48.274;7.794;2023-03-24T17:38:03;2.47;;;1.15;;
21721;SDS011;11023;48.274;7.794;2023-03-24T17:40:28;3.10;;;1.20;;
21721;SDS011;11023;48.274;7.794;2023-03-24T17:42:54;2.55;;;1.35;;
21721;SDS011;11023;48.274;7.794;2023-03-24T17:45:20;2.95;;;1.13;;
21721;SDS011;11023;48.274;7.794;2023-03-24T17:47:45;1.17;;;1.00;;